createdAt,value
2023-04-26T00:00:24.429Z,0.00
2023-04-26T00:01:24.461Z,0.00
2023-04-26T00:02:24.576Z,0.00
2023-04-26T00:03:24.481Z,0.00
2023-04-26T00:04:24.533Z,0.00
2023-04-26T00:05:24.457Z,0.00
2023-04-26T00:06:24.355Z,0.00
2023-04-26T00:07:24.390Z,0.00
2023-04-26T00:08:27.314Z,0.00
2023-04-26T00:09:27.335Z,0.00
2023-04-26T00:10:24.301Z,0.00
2023-04-26T00:11:24.297Z,0.00
2023-04-26T00:12:24.288Z,0.00
2023-04-26T00:13:24.301Z,0.00
2023-04-26T00:14:24.248Z,0.00
2023-04-26T00:15:24.227Z,0.00
2023-04-26T00:16:24.266Z,0.00
2023-04-26T00:17:24.201Z,0.00
2023-04-26T00:18:24.192Z,0.00
2023-04-26T00:19:24.256Z,0.00
2023-04-26T00:20:24.188Z,0.00
2023-04-26T00:21:24.146Z,0.00
2023-04-26T00:22:24.134Z,0.00
2023-04-26T00:23:24.122Z,0.00
2023-04-26T00:24:24.111Z,0.00
2023-04-26T00:25:24.152Z,0.00
2023-04-26T00:26:24.095Z,0.00
2023-04-26T00:27:24.069Z,0.00
2023-04-26T00:28:27.058Z,0.00
2023-04-26T00:29:27.046Z,0.00
2023-04-26T00:30:24.033Z,0.00
2023-04-26T00:31:24.209Z,0.00
2023-04-26T00:32:24.152Z,0.00
2023-04-26T00:33:23.984Z,0.00
2023-04-26T00:34:23.969Z,0.00
2023-04-26T00:35:23.968Z,0.00
2023-04-26T00:36:24.003Z,0.00
2023-04-26T00:37:23.982Z,0.00
2023-04-26T00:38:23.933Z,0.00
2023-04-26T00:39:23.938Z,0.00
2023-04-26T00:40:23.914Z,0.00
2023-04-26T00:41:23.872Z,0.00
2023-04-26T00:42:23.894Z,0.00
2023-04-26T00:43:23.909Z,0.00
2023-04-26T00:44:23.844Z,0.00
2023-04-26T00:45:23.825Z,0.00
2023-04-26T00:46:23.870Z,0.00
2023-04-26T00:47:23.892Z,0.00
2023-04-26T00:48:26.848Z,0.00
2023-04-26T00:49:26.800Z,0.00
2023-04-26T00:50:23.767Z,0.00
2023-04-26T00:51:23.749Z,0.00
2023-04-26T00:52:23.751Z,0.00
2023-04-26T00:53:23.743Z,0.00
2023-04-26T00:54:23.734Z,0.00
2023-04-26T00:55:23.725Z,0.00
2023-04-26T00:56:23.710Z,0.00
2023-04-26T00:57:23.673Z,0.00
2023-04-26T00:58:23.709Z,0.00
2023-04-26T00:59:23.661Z,0.00
2023-04-26T01:00:23.639Z,0.00
2023-04-26T01:01:23.684Z,0.00
2023-04-26T01:02:23.648Z,0.00
2023-04-26T01:03:23.793Z,0.00
2023-04-26T01:04:23.791Z,0.00
2023-04-26T01:05:23.558Z,0.00
2023-04-26T01:06:23.553Z,0.00
2023-04-26T01:07:23.537Z,0.00
2023-04-26T01:08:26.523Z,0.00
2023-04-26T01:09:26.537Z,0.00
2023-04-26T01:10:23.487Z,0.00
2023-04-26T01:11:23.506Z,0.00
2023-04-26T01:12:23.483Z,0.00
2023-04-26T01:13:23.443Z,0.00
2023-04-26T01:14:23.464Z,0.00
2023-04-26T01:15:23.419Z,0.00
2023-04-26T01:16:23.438Z,0.00
2023-04-26T01:17:23.403Z,0.00
2023-04-26T01:18:23.448Z,0.00
2023-04-26T01:19:23.423Z,0.00
2023-04-26T01:20:23.359Z,0.00
2023-04-26T01:21:23.338Z,0.00
2023-04-26T01:22:23.334Z,0.00
2023-04-26T01:23:23.335Z,0.00
2023-04-26T01:24:23.322Z,0.00
2023-04-26T01:25:23.285Z,0.00
2023-04-26T01:26:23.316Z,0.00
2023-04-26T01:27:23.282Z,0.00
2023-04-26T01:28:26.238Z,0.00
2023-04-26T01:29:26.282Z,0.00
2023-04-26T01:30:23.232Z,0.00
2023-04-26T01:31:23.244Z,0.00
2023-04-26T01:32:23.230Z,0.00
2023-04-26T01:33:23.204Z,0.00
2023-04-26T01:34:23.168Z,0.00
2023-04-26T01:35:23.164Z,0.00
2023-04-26T01:36:23.142Z,0.00
2023-04-26T01:37:23.116Z,0.00
2023-04-26T01:38:23.181Z,0.00
2023-04-26T01:39:23.091Z,0.00
2023-04-26T01:40:23.089Z,0.00
2023-04-26T01:41:23.056Z,0.00
2023-04-26T01:42:23.057Z,0.00
2023-04-26T01:43:23.045Z,0.00
2023-04-26T01:44:23.063Z,0.00
2023-04-26T01:45:23.007Z,0.00
2023-04-26T01:46:23.100Z,0.00
2023-04-26T01:47:23.005Z,0.00
2023-04-26T01:48:26.008Z,0.00
2023-04-26T01:49:25.959Z,0.00
2023-04-26T01:50:22.945Z,0.00
2023-04-26T01:51:22.935Z,0.00
2023-04-26T01:52:22.948Z,0.00
2023-04-26T01:53:22.964Z,0.00
2023-04-26T01:54:22.878Z,0.00
2023-04-26T01:55:22.867Z,0.00
2023-04-26T01:56:22.867Z,0.00
2023-04-26T01:57:22.873Z,0.00
2023-04-26T01:58:22.852Z,0.00
2023-04-26T01:59:22.835Z,0.00
2023-04-26T02:00:22.807Z,0.00
2023-04-26T02:01:22.789Z,0.00
2023-04-26T02:02:22.829Z,0.00
2023-04-26T02:03:23.023Z,0.00
2023-04-26T02:04:22.745Z,0.00
2023-04-26T02:05:22.816Z,0.00
2023-04-26T02:06:22.744Z,0.00
2023-04-26T02:07:22.703Z,0.00
2023-04-26T02:08:25.751Z,0.00
2023-04-26T02:09:25.673Z,0.00
2023-04-26T02:10:22.704Z,0.00
2023-04-26T02:11:22.654Z,0.00
2023-04-26T02:12:22.660Z,0.00
2023-04-26T02:13:22.653Z,0.00
2023-04-26T02:14:22.647Z,0.00
2023-04-26T02:15:22.653Z,0.00
2023-04-26T02:16:22.645Z,0.00
2023-04-26T02:17:22.569Z,0.00
2023-04-26T02:18:22.564Z,0.00
2023-04-26T02:19:22.548Z,0.00
2023-04-26T02:20:22.552Z,0.00
2023-04-26T02:21:22.550Z,0.00
2023-04-26T02:22:22.498Z,0.00
2023-04-26T02:23:22.508Z,0.00
2023-04-26T02:24:22.477Z,0.00
2023-04-26T02:25:22.464Z,0.00
2023-04-26T02:26:22.509Z,0.00
2023-04-26T02:27:22.464Z,0.00
2023-04-26T02:28:25.432Z,0.00
2023-04-26T02:29:42.306Z,0.00
2023-04-26T02:30:23.421Z,0.00
2023-04-26T02:31:23.250Z,0.00
2023-04-26T02:32:22.452Z,0.00
2023-04-26T02:33:22.405Z,0.00
2023-04-26T02:34:22.381Z,0.00
2023-04-26T02:35:22.321Z,0.00
2023-04-26T02:36:22.312Z,0.00
2023-04-26T02:37:22.296Z,0.00
2023-04-26T02:38:22.300Z,0.00
2023-04-26T02:39:22.338Z,0.00
2023-04-26T02:40:22.292Z,0.00
2023-04-26T02:41:22.243Z,0.00
2023-04-26T02:42:22.234Z,0.00
2023-04-26T02:43:22.222Z,0.00
2023-04-26T02:44:22.224Z,0.00
2023-04-26T02:45:22.237Z,0.00
2023-04-26T02:46:22.188Z,0.00
2023-04-26T02:47:22.202Z,0.00
2023-04-26T02:48:25.158Z,0.00
2023-04-26T02:49:25.144Z,0.00
2023-04-26T02:50:22.146Z,0.00
2023-04-26T02:51:22.133Z,0.00
2023-04-26T02:52:22.147Z,0.00
2023-04-26T02:53:22.091Z,0.00
2023-04-26T02:54:22.124Z,0.00
2023-04-26T02:55:22.060Z,0.00
2023-04-26T02:56:22.049Z,0.00
2023-04-26T02:57:22.030Z,0.00
2023-04-26T02:58:22.112Z,0.00
2023-04-26T02:59:22.022Z,0.00
2023-04-26T03:00:21.992Z,0.00
2023-04-26T03:01:22.046Z,0.00
2023-04-26T03:02:22.059Z,0.00
2023-04-26T03:03:22.127Z,0.00
2023-04-26T03:04:22.011Z,0.00
2023-04-26T03:05:21.916Z,0.00
2023-04-26T03:06:21.902Z,0.00
2023-04-26T03:07:21.886Z,0.00
2023-04-26T03:08:24.906Z,0.00
2023-04-26T03:09:24.890Z,0.00
2023-04-26T03:10:21.868Z,0.00
2023-04-26T03:11:21.838Z,0.00
2023-04-26T03:12:21.846Z,0.00
2023-04-26T03:13:21.812Z,0.00
2023-04-26T03:14:21.797Z,0.00
2023-04-26T03:15:21.842Z,0.00
2023-04-26T03:16:21.826Z,0.00
2023-04-26T03:17:21.768Z,0.00
2023-04-26T03:18:21.734Z,0.00
2023-04-26T03:19:21.747Z,0.00
2023-04-26T03:20:21.728Z,0.00
2023-04-26T03:21:21.756Z,0.00
2023-04-26T03:22:21.698Z,0.00
2023-04-26T03:23:21.676Z,0.00
2023-04-26T03:24:21.654Z,0.00
2023-04-26T03:25:21.644Z,0.00
2023-04-26T03:26:21.634Z,0.00
2023-04-26T03:27:21.684Z,0.00
2023-04-26T03:28:24.606Z,0.00
2023-04-26T03:29:24.628Z,0.00
2023-04-26T03:30:21.578Z,0.00
2023-04-26T03:31:21.653Z,0.00
2023-04-26T03:32:21.552Z,4.00
2023-04-26T03:33:21.560Z,0.00
2023-04-26T03:34:21.536Z,4.00
2023-04-26T03:35:21.559Z,0.00
2023-04-26T03:36:21.495Z,4.00
2023-04-26T03:37:21.480Z,4.00
2023-04-26T03:38:21.464Z,8.00
2023-04-26T03:39:21.475Z,8.00
2023-04-26T03:40:21.447Z,8.00
2023-04-26T03:41:21.465Z,8.00
2023-04-26T03:42:21.425Z,12.00
2023-04-26T03:43:21.474Z,12.00
2023-04-26T03:44:21.389Z,16.00
2023-04-26T03:45:21.372Z,16.00
2023-04-26T03:46:21.471Z,20.00
2023-04-26T03:47:21.357Z,24.00
2023-04-26T03:48:24.326Z,28.00
2023-04-26T03:49:24.324Z,32.00
2023-04-26T03:50:21.313Z,36.00
2023-04-26T03:51:21.288Z,40.00
2023-04-26T03:52:21.333Z,44.00
2023-04-26T03:53:21.272Z,56.00
2023-04-26T03:54:21.246Z,64.00
2023-04-26T03:55:21.259Z,76.00
2023-04-26T03:56:21.221Z,88.00
2023-04-26T03:57:21.208Z,100.00
2023-04-26T03:58:21.250Z,108.00
2023-04-26T03:59:21.180Z,120.00
2023-04-26T04:00:21.183Z,132.00
2023-04-26T04:01:21.152Z,140.00
2023-04-26T04:02:21.201Z,148.00
2023-04-26T04:03:21.402Z,152.00
2023-04-26T04:04:21.328Z,152.00
2023-04-26T04:05:21.221Z,156.00
2023-04-26T04:06:21.075Z,160.00
2023-04-26T04:07:21.089Z,168.00
2023-04-26T04:08:24.050Z,180.00
2023-04-26T04:09:24.109Z,196.00
2023-04-26T04:10:21.033Z,220.00
2023-04-26T04:11:21.016Z,236.00
2023-04-26T04:12:21.028Z,240.00
2023-04-26T04:13:20.985Z,236.00
2023-04-26T04:14:21.020Z,232.00
2023-04-26T04:15:21.046Z,256.00
2023-04-26T04:16:21.066Z,288.00
2023-04-26T04:17:20.948Z,280.00
2023-04-26T04:18:20.913Z,276.00
2023-04-26T04:19:20.955Z,296.00
2023-04-26T04:20:20.889Z,324.00
2023-04-26T04:21:20.929Z,320.00
2023-04-26T04:22:20.880Z,304.00
2023-04-26T04:23:20.851Z,288.00
2023-04-26T04:24:20.829Z,264.00
2023-04-26T04:25:20.816Z,232.00
2023-04-26T04:26:20.807Z,212.00
2023-04-26T04:27:20.840Z,220.00
2023-04-26T04:28:23.779Z,236.00
2023-04-26T04:29:23.794Z,256.00
2023-04-26T04:30:20.755Z,296.00
2023-04-26T04:31:20.772Z,360.00
2023-04-26T04:32:20.721Z,416.00
2023-04-26T04:33:20.740Z,460.00
2023-04-26T04:34:20.722Z,496.00
2023-04-26T04:35:20.682Z,548.00
2023-04-26T04:36:20.666Z,656.00
2023-04-26T04:37:20.655Z,832.00
2023-04-26T04:38:20.694Z,828.00
2023-04-26T04:39:20.645Z,604.00
2023-04-26T04:40:20.626Z,476.00
2023-04-26T04:41:20.606Z,388.00
2023-04-26T04:42:20.584Z,348.00
2023-04-26T04:43:20.568Z,348.00
2023-04-26T04:44:20.624Z,336.00
2023-04-26T04:45:20.552Z,320.00
2023-04-26T04:46:20.570Z,308.00
2023-04-26T04:47:20.529Z,340.00
2023-04-26T04:48:23.497Z,408.00
2023-04-26T04:49:23.517Z,520.00
2023-04-26T04:50:20.481Z,660.00
2023-04-26T04:51:20.462Z,836.00
2023-04-26T04:52:20.489Z,1036.00
2023-04-26T04:53:20.487Z,1252.00
2023-04-26T04:54:20.418Z,1472.00
2023-04-26T04:55:20.417Z,1748.00
2023-04-26T04:56:20.396Z,1988.00
2023-04-26T04:57:20.426Z,2184.00
2023-04-26T04:58:20.368Z,2316.00
2023-04-26T04:59:20.414Z,2412.00
2023-04-26T05:00:20.332Z,2476.00
2023-04-26T05:01:20.340Z,2528.00
2023-04-26T05:02:20.364Z,2588.00
2023-04-26T05:03:20.468Z,2660.00
2023-04-26T05:04:20.531Z,2744.00
2023-04-26T05:05:20.318Z,2816.00
2023-04-26T05:06:20.298Z,2908.00
2023-04-26T05:07:20.249Z,3108.00
2023-04-26T05:08:23.238Z,4164.00
2023-04-26T05:09:23.231Z,7184.00
2023-04-26T05:10:20.205Z,7388.00
2023-04-26T05:11:20.263Z,7560.00
2023-04-26T05:12:20.187Z,7548.00
2023-04-26T05:13:20.170Z,7440.00
2023-04-26T05:14:20.188Z,7756.00
2023-04-26T05:15:20.140Z,7916.00
2023-04-26T05:16:20.184Z,8152.00
2023-04-26T05:17:20.161Z,8376.00
2023-04-26T05:18:20.116Z,8580.00
2023-04-26T05:19:20.097Z,8708.00
2023-04-26T05:20:20.070Z,8696.00
2023-04-26T05:21:20.057Z,8728.00
2023-04-26T05:22:20.037Z,8744.00
2023-04-26T05:23:20.078Z,8824.00
2023-04-26T05:24:20.009Z,8856.00
2023-04-26T05:25:22.255Z,8884.00
2023-04-26T05:26:20.013Z,7228.00
2023-04-26T05:27:19.992Z,6088.00
2023-04-26T05:28:23.017Z,5288.00
2023-04-26T05:29:22.958Z,5828.00
2023-04-26T05:30:19.982Z,7616.00
2023-04-26T05:31:19.945Z,6244.00
2023-04-26T05:32:19.906Z,3372.00
2023-04-26T05:33:19.929Z,2140.00
2023-04-26T05:34:19.951Z,2044.00
2023-04-26T05:35:19.867Z,2004.00
2023-04-26T05:36:19.856Z,1976.00
2023-04-26T05:37:19.837Z,1944.00
2023-04-26T05:38:19.823Z,1876.00
2023-04-26T05:39:19.833Z,1764.00
2023-04-26T05:40:19.868Z,1708.00
2023-04-26T05:41:19.782Z,1776.00
2023-04-26T05:42:19.768Z,1884.00
2023-04-26T05:43:19.782Z,1984.00
2023-04-26T05:44:19.739Z,2164.00
2023-04-26T05:45:19.741Z,2256.00
2023-04-26T05:46:19.936Z,2152.00
2023-04-26T05:47:19.707Z,2000.00
2023-04-26T05:48:22.687Z,1980.00
2023-04-26T05:49:22.683Z,2124.00
2023-04-26T05:50:19.664Z,2292.00
2023-04-26T05:51:19.657Z,2380.00
2023-04-26T05:52:19.653Z,2408.00
2023-04-26T05:53:19.619Z,2448.00
2023-04-26T05:54:19.611Z,2564.00
2023-04-26T05:55:19.752Z,2736.00
2023-04-26T05:56:19.575Z,2940.00
2023-04-26T05:57:21.769Z,3212.00
2023-04-26T05:58:19.552Z,3748.00
2023-04-26T05:59:19.547Z,4768.00
2023-04-26T06:00:19.516Z,6604.00
2023-04-26T06:01:19.516Z,9444.00
2023-04-26T06:02:19.551Z,9672.00
2023-04-26T06:03:19.783Z,7724.00
2023-04-26T06:04:19.695Z,9756.00
2023-04-26T06:05:19.503Z,9908.00
2023-04-26T06:06:19.454Z,10172.00
2023-04-26T06:07:19.422Z,10364.00
2023-04-26T06:08:22.450Z,10316.00
2023-04-26T06:09:22.401Z,10288.00
2023-04-26T06:10:19.438Z,10168.00
2023-04-26T06:11:19.382Z,10004.00
2023-04-26T06:12:19.362Z,9772.00
2023-04-26T06:13:19.357Z,9504.00
2023-04-26T06:14:29.393Z,9216.00
2023-04-26T06:15:20.354Z,8996.00
2023-04-26T06:16:19.347Z,8692.00
2023-04-26T06:17:19.380Z,8432.00
2023-04-26T06:18:19.284Z,8116.00
2023-04-26T06:19:19.255Z,7908.00
2023-04-26T06:20:19.247Z,7680.00
2023-04-26T06:21:19.306Z,7448.00
2023-04-26T06:22:19.214Z,7236.00
2023-04-26T06:23:20.343Z,7096.00
2023-04-26T06:24:19.186Z,7044.00
2023-04-26T06:25:19.181Z,7104.00
2023-04-26T06:26:19.175Z,7288.00
2023-04-26T06:27:19.209Z,7484.00
2023-04-26T06:28:22.180Z,7412.00
2023-04-26T06:29:22.123Z,6824.00
2023-04-26T06:30:19.119Z,6320.00
2023-04-26T06:31:19.137Z,5960.00
2023-04-26T06:32:19.117Z,5440.00
2023-04-26T06:33:19.120Z,5100.00
2023-04-26T06:34:20.047Z,4624.00
2023-04-26T06:35:19.057Z,4116.00
2023-04-26T06:36:19.046Z,3620.00
2023-04-26T06:37:19.029Z,3036.00
2023-04-26T06:38:19.018Z,2456.00
2023-04-26T06:39:19.052Z,2112.00
2023-04-26T06:40:18.977Z,2036.00
2023-04-26T06:41:18.993Z,2172.00
2023-04-26T06:42:18.948Z,2420.00
2023-04-26T06:43:19.004Z,2664.00
2023-04-26T06:44:18.916Z,3120.00
2023-04-26T06:45:19.014Z,4240.00
2023-04-26T06:46:18.914Z,5284.00
2023-04-26T06:47:18.892Z,5824.00
2023-04-26T06:48:21.868Z,5504.00
2023-04-26T06:49:21.866Z,4364.00
2023-04-26T06:50:18.920Z,3148.00
2023-04-26T06:51:18.841Z,2340.00
2023-04-26T06:52:20.007Z,1948.00
2023-04-26T06:53:19.833Z,1864.00
2023-04-26T06:54:19.076Z,2040.00
2023-04-26T06:55:18.766Z,2536.00
2023-04-26T06:56:18.807Z,3236.00
2023-04-26T06:57:18.755Z,3676.00
2023-04-26T06:58:18.737Z,3408.00
2023-04-26T06:59:18.719Z,3048.00
2023-04-26T07:00:18.712Z,2956.00
2023-04-26T07:01:18.723Z,3140.00
2023-04-26T07:02:18.769Z,3968.00
2023-04-26T07:03:18.859Z,4064.00
2023-04-26T07:04:18.931Z,4220.00
2023-04-26T07:05:18.748Z,4400.00
2023-04-26T07:06:18.624Z,4664.00
2023-04-26T07:07:18.642Z,5180.00
2023-04-26T07:08:21.653Z,6452.00
2023-04-26T07:09:21.593Z,7100.00
2023-04-26T07:10:18.561Z,7792.00
2023-04-26T07:11:18.558Z,7624.00
2023-04-26T07:12:18.635Z,6660.00
2023-04-26T07:13:18.539Z,5812.00
2023-04-26T07:14:18.509Z,6064.00
2023-04-26T07:15:18.544Z,5284.00
2023-04-26T07:16:18.533Z,5308.00
2023-04-26T07:17:18.476Z,5720.00
2023-04-26T07:18:18.528Z,6408.00
2023-04-26T07:19:18.451Z,5968.00
2023-04-26T07:20:18.439Z,5896.00
2023-04-26T07:21:18.428Z,5700.00
2023-04-26T07:22:18.437Z,5684.00
2023-04-26T07:23:18.385Z,5156.00
2023-04-26T07:24:18.456Z,4784.00
2023-04-26T07:25:18.384Z,4952.00
2023-04-26T07:26:18.345Z,4932.00
2023-04-26T07:27:18.335Z,5320.00
2023-04-26T07:28:21.335Z,5288.00
2023-04-26T07:29:21.354Z,5608.00
2023-04-26T07:30:18.297Z,5588.00
2023-04-26T07:31:18.301Z,5752.00
2023-04-26T07:32:18.323Z,6352.00
2023-04-26T07:33:18.352Z,6584.00
2023-04-26T07:34:18.230Z,7604.00
2023-04-26T07:35:18.297Z,7564.00
2023-04-26T07:36:18.234Z,7740.00
2023-04-26T07:37:18.186Z,6904.00
2023-04-26T07:38:18.185Z,5716.00
2023-04-26T07:39:18.168Z,5212.00
2023-04-26T07:40:18.162Z,5060.00
2023-04-26T07:41:18.196Z,4856.00
2023-04-26T07:42:18.130Z,4556.00
2023-04-26T07:43:18.114Z,4072.00
2023-04-26T07:44:18.156Z,3728.00
2023-04-26T07:45:18.102Z,3512.00
2023-04-26T07:46:18.236Z,3292.00
2023-04-26T07:47:18.119Z,3128.00
2023-04-26T07:48:21.048Z,2964.00
2023-04-26T07:49:21.044Z,2860.00
2023-04-26T07:50:18.016Z,2852.00
2023-04-26T07:51:18.020Z,2888.00
2023-04-26T07:52:17.990Z,2952.00
2023-04-26T07:53:18.029Z,2960.00
2023-04-26T07:54:17.971Z,2908.00
2023-04-26T07:55:18.042Z,2916.00
2023-04-26T07:56:17.958Z,3064.00
2023-04-26T07:57:18.061Z,3128.00
2023-04-26T07:58:17.919Z,3084.00
2023-04-26T07:59:17.915Z,3140.00
2023-04-26T08:00:17.892Z,3408.00
2023-04-26T08:01:17.855Z,3904.00
2023-04-26T08:02:17.974Z,4392.00
2023-04-26T08:03:18.172Z,4808.00
2023-04-26T08:04:17.938Z,5556.00
2023-04-26T08:05:17.991Z,5492.00
2023-04-26T08:06:17.893Z,5560.00
2023-04-26T08:07:17.773Z,5460.00
2023-04-26T08:08:20.823Z,5564.00
2023-04-26T08:09:20.766Z,5692.00
2023-04-26T08:10:17.734Z,6764.00
2023-04-26T08:11:17.719Z,6516.00
2023-04-26T08:12:17.726Z,7024.00
2023-04-26T08:13:17.690Z,6568.00
2023-04-26T08:14:17.705Z,6196.00
2023-04-26T08:15:17.673Z,6184.00
2023-04-26T08:16:17.700Z,6244.00
2023-04-26T08:17:17.638Z,8056.00
2023-04-26T08:18:17.633Z,8260.00
2023-04-26T08:19:17.597Z,7952.00
2023-04-26T08:20:17.598Z,7824.00
2023-04-26T08:21:17.620Z,7124.00
2023-04-26T08:22:17.590Z,6196.00
2023-04-26T08:23:17.555Z,5712.00
2023-04-26T08:24:17.545Z,4984.00
2023-04-26T08:25:17.583Z,3856.00
2023-04-26T08:26:17.516Z,2672.00
2023-04-26T08:27:17.503Z,1824.00
2023-04-26T08:28:20.487Z,1284.00
2023-04-26T08:29:20.486Z,1040.00
2023-04-26T08:30:17.462Z,1024.00
2023-04-26T08:31:17.822Z,1172.00
2023-04-26T08:32:17.432Z,1324.00
2023-04-26T08:33:17.414Z,1404.00
2023-04-26T08:34:17.399Z,1548.00
2023-04-26T08:35:17.392Z,1900.00
2023-04-26T08:36:17.378Z,2372.00
2023-04-26T08:37:17.389Z,2848.00
2023-04-26T08:38:17.354Z,3428.00
2023-04-26T08:39:17.324Z,3928.00
2023-04-26T08:40:17.315Z,4240.00
2023-04-26T08:41:17.322Z,4512.00
2023-04-26T08:42:17.296Z,4872.00
2023-04-26T08:43:17.325Z,5092.00
2023-04-26T08:44:17.260Z,5172.00
2023-04-26T08:45:17.253Z,5188.00
2023-04-26T08:46:17.304Z,5540.00
2023-04-26T08:47:17.215Z,5812.00
2023-04-26T08:48:20.271Z,5828.00
2023-04-26T08:49:20.196Z,5612.00
2023-04-26T08:50:17.175Z,5272.00
2023-04-26T08:51:17.159Z,5452.00
2023-04-26T08:52:17.300Z,5320.00
2023-04-26T08:53:17.145Z,4948.00
2023-04-26T08:54:17.173Z,5348.00
2023-04-26T08:55:17.119Z,5024.00
2023-04-26T08:56:17.101Z,4508.00
2023-04-26T08:57:17.085Z,4308.00
2023-04-26T08:58:17.085Z,4552.00
2023-04-26T08:59:17.064Z,4616.00
2023-04-26T09:00:17.097Z,4260.00
2023-04-26T09:01:17.065Z,4552.00
2023-04-26T09:02:17.080Z,5116.00
2023-04-26T09:03:17.079Z,5180.00
2023-04-26T09:04:17.204Z,5332.00
2023-04-26T09:05:17.122Z,5464.00
2023-04-26T09:06:16.974Z,5480.00
2023-04-26T09:07:16.943Z,5528.00
2023-04-26T09:08:19.958Z,5128.00
2023-04-26T09:09:19.931Z,5728.00
2023-04-26T09:10:16.925Z,5772.00
2023-04-26T09:11:16.940Z,5788.00
2023-04-26T09:12:16.878Z,5772.00
2023-04-26T09:13:16.869Z,5912.00
2023-04-26T09:14:16.877Z,6044.00
2023-04-26T09:15:16.856Z,6136.00
2023-04-26T09:16:16.912Z,6144.00
2023-04-26T09:17:16.834Z,6712.00
2023-04-26T09:18:16.802Z,6384.00
2023-04-26T09:19:16.799Z,6360.00
2023-04-26T09:20:16.787Z,7168.00
2023-04-26T09:21:16.844Z,5924.00
2023-04-26T09:22:16.737Z,7468.00
2023-04-26T09:23:16.764Z,7580.00
2023-04-26T09:24:16.715Z,8032.00
2023-04-26T09:25:16.705Z,7976.00
2023-04-26T09:26:16.690Z,7912.00
2023-04-26T09:27:16.723Z,7784.00
2023-04-26T09:28:19.679Z,7640.00
2023-04-26T09:29:19.663Z,7600.00
2023-04-26T09:30:16.642Z,7100.00
2023-04-26T09:31:16.639Z,6244.00
2023-04-26T09:32:16.676Z,6376.00
2023-04-26T09:33:16.679Z,7576.00
2023-04-26T09:34:16.579Z,7880.00
2023-04-26T09:35:16.574Z,7792.00
2023-04-26T09:36:16.559Z,7772.00
2023-04-26T09:37:16.569Z,7472.00
2023-04-26T09:38:16.626Z,7012.00
2023-04-26T09:39:16.518Z,6876.00
2023-04-26T09:40:16.503Z,6800.00
2023-04-26T09:41:16.505Z,6720.00
2023-04-26T09:42:16.476Z,6776.00
2023-04-26T09:43:16.477Z,6616.00
2023-04-26T09:44:16.490Z,6644.00
2023-04-26T09:45:16.418Z,6372.00
2023-04-26T09:46:16.432Z,6352.00
2023-04-26T09:47:16.405Z,6432.00
2023-04-26T09:48:19.382Z,6628.00
2023-04-26T09:49:19.405Z,6724.00
2023-04-26T09:50:16.379Z,6716.00
2023-04-26T09:51:16.337Z,6696.00
2023-04-26T09:52:16.339Z,6824.00
2023-04-26T09:53:16.315Z,7208.00
2023-04-26T09:54:16.291Z,7560.00
2023-04-26T09:55:25.402Z,7628.00
2023-04-26T09:56:17.271Z,8028.00
2023-04-26T09:57:16.259Z,8360.00
2023-04-26T09:58:16.264Z,8496.00
2023-04-26T09:59:16.250Z,8548.00
2023-04-26T10:00:16.223Z,8360.00
2023-04-26T10:01:16.401Z,8376.00
2023-04-26T10:02:16.266Z,8252.00
2023-04-26T10:03:16.259Z,6188.00
2023-04-26T10:04:16.241Z,4664.00
2023-04-26T10:05:16.136Z,3800.00
2023-04-26T10:06:16.146Z,3332.00
2023-04-26T10:07:16.134Z,2792.00
2023-04-26T10:08:19.095Z,2600.00
2023-04-26T10:09:19.087Z,2564.00
2023-04-26T10:10:16.093Z,2616.00
2023-04-26T10:11:16.108Z,2792.00
2023-04-26T10:12:16.075Z,3304.00
2023-04-26T10:13:16.045Z,3984.00
2023-04-26T10:14:16.031Z,4764.00
2023-04-26T10:15:16.004Z,5420.00
2023-04-26T10:16:16.073Z,5736.00
2023-04-26T10:17:16.018Z,5464.00
2023-04-26T10:18:16.099Z,5088.00
2023-04-26T10:19:15.985Z,4792.00
2023-04-26T10:20:15.934Z,4604.00
2023-04-26T10:21:15.915Z,4360.00
2023-04-26T10:22:15.916Z,4428.00
2023-04-26T10:23:17.218Z,4820.00
2023-04-26T10:24:15.870Z,5180.00
2023-04-26T10:25:15.891Z,5324.00
2023-04-26T10:26:15.846Z,5276.00
2023-04-26T10:27:15.828Z,5228.00
2023-04-26T10:28:18.833Z,5068.00
2023-04-26T10:29:18.842Z,5148.00
2023-04-26T10:30:15.825Z,5496.00
2023-04-26T10:31:15.793Z,5844.00
2023-04-26T10:32:15.828Z,6128.00
2023-04-26T10:33:15.793Z,6376.00
2023-04-26T10:34:15.807Z,6584.00
2023-04-26T10:35:15.770Z,6744.00
2023-04-26T10:36:15.731Z,7092.00
2023-04-26T10:37:15.701Z,7188.00
2023-04-26T10:38:15.700Z,6928.00
2023-04-26T10:39:15.670Z,7064.00
2023-04-26T10:40:15.733Z,7312.00
2023-04-26T10:41:15.640Z,7524.00
2023-04-26T10:42:15.632Z,7484.00
2023-04-26T10:43:15.623Z,7328.00
2023-04-26T10:44:15.605Z,7440.00
2023-04-26T10:45:15.584Z,7528.00
2023-04-26T10:46:17.270Z,7560.00
2023-04-26T10:47:15.550Z,7660.00
2023-04-26T10:48:18.583Z,7636.00
2023-04-26T10:49:18.523Z,7444.00
2023-04-26T10:50:15.582Z,6952.00
2023-04-26T10:51:15.537Z,6884.00
2023-04-26T10:52:15.542Z,7076.00
2023-04-26T10:53:15.468Z,7232.00
2023-04-26T10:54:15.475Z,7268.00
2023-04-26T10:55:15.450Z,7284.00
2023-04-26T10:56:15.439Z,7384.00
2023-04-26T10:57:15.410Z,7456.00
2023-04-26T10:58:15.447Z,7356.00
2023-04-26T11:00:15.413Z,7408.00
2023-04-26T11:01:15.382Z,7536.00
2023-04-26T11:02:15.385Z,7536.00
2023-04-26T11:03:15.461Z,7576.00
2023-04-26T11:04:15.386Z,7504.00
2023-04-26T11:05:15.289Z,7388.00
2023-04-26T11:06:15.293Z,7264.00
2023-04-26T11:07:15.261Z,6896.00
2023-04-26T11:08:18.310Z,6860.00
2023-04-26T11:09:18.245Z,6780.00
2023-04-26T11:10:15.221Z,7308.00
2023-04-26T11:11:15.201Z,6728.00
2023-04-26T11:12:15.233Z,7336.00
2023-04-26T11:13:15.207Z,7540.00
2023-04-26T11:14:16.297Z,7392.00
2023-04-26T11:15:15.185Z,7620.00
2023-04-26T11:16:15.227Z,7876.00
2023-04-26T11:17:15.141Z,7920.00
2023-04-26T11:18:15.117Z,7852.00
2023-04-26T11:19:15.108Z,7976.00
2023-04-26T11:20:15.114Z,7932.00
2023-04-26T11:21:15.114Z,7928.00
2023-04-26T11:22:15.075Z,8112.00
2023-04-26T11:23:15.872Z,7756.00
2023-04-26T11:24:15.076Z,7616.00
2023-04-26T11:25:15.027Z,7652.00
2023-04-26T11:26:15.038Z,6432.00
2023-04-26T11:27:15.055Z,6056.00
2023-04-26T11:28:17.972Z,6116.00
2023-04-26T11:29:17.989Z,5248.00
2023-04-26T11:30:14.957Z,6396.00
2023-04-26T11:31:15.006Z,5724.00
2023-04-26T11:32:14.977Z,5972.00
2023-04-26T11:33:14.922Z,6592.00
2023-04-26T11:34:14.906Z,6304.00
2023-04-26T11:35:14.891Z,6000.00
2023-04-26T11:36:14.889Z,5920.00
2023-04-26T11:37:14.860Z,5916.00
2023-04-26T11:38:14.848Z,5652.00
2023-04-26T11:39:14.856Z,5476.00
2023-04-26T11:40:14.825Z,5040.00
2023-04-26T11:41:14.802Z,5092.00
2023-04-26T11:42:14.790Z,5140.00
2023-04-26T11:43:14.878Z,5220.00
2023-04-26T11:44:14.757Z,5332.00
2023-04-26T11:45:15.518Z,5384.00
2023-04-26T11:46:14.812Z,5488.00
2023-04-26T11:47:14.736Z,5616.00
2023-04-26T11:48:17.848Z,5796.00
2023-04-26T11:49:17.707Z,6140.00
2023-04-26T11:50:14.674Z,6304.00
2023-04-26T11:51:14.678Z,6360.00
2023-04-26T11:52:14.646Z,6212.00
2023-04-26T11:53:14.649Z,5816.00
2023-04-26T11:54:14.653Z,5376.00
2023-04-26T11:55:14.628Z,5424.00
2023-04-26T11:56:14.595Z,5412.00
2023-04-26T11:57:16.689Z,6064.00
2023-04-26T11:58:14.570Z,6124.00
2023-04-26T11:59:14.588Z,5944.00
2023-04-26T12:00:14.547Z,5684.00
2023-04-26T12:01:14.524Z,5428.00
2023-04-26T12:02:14.746Z,5292.00
2023-04-26T12:03:14.769Z,5312.00
2023-04-26T12:04:14.644Z,5492.00
2023-04-26T12:05:14.574Z,5636.00
2023-04-26T12:06:14.456Z,5628.00
2023-04-26T12:07:14.443Z,5500.00
2023-04-26T12:08:17.424Z,5496.00
2023-04-26T12:09:17.468Z,5400.00
2023-04-26T12:10:14.395Z,5388.00
2023-04-26T12:11:14.379Z,5240.00
2023-04-26T12:12:14.362Z,5048.00
2023-04-26T12:13:14.407Z,4580.00
2023-04-26T12:14:14.343Z,4052.00
2023-04-26T12:15:15.590Z,3688.00
2023-04-26T12:16:25.672Z,3468.00
2023-04-26T12:17:15.318Z,3296.00
2023-04-26T12:18:14.604Z,3168.00
2023-04-26T12:19:14.276Z,3168.00
2023-04-26T12:20:14.262Z,3276.00
2023-04-26T12:21:14.273Z,3728.00
2023-04-26T12:22:14.287Z,4224.00
2023-04-26T12:23:14.212Z,4624.00
2023-04-26T12:24:14.190Z,5036.00
2023-04-26T12:25:14.181Z,5436.00
2023-04-26T12:26:14.193Z,5688.00
2023-04-26T12:27:14.153Z,6048.00
2023-04-26T12:28:17.169Z,6884.00
2023-04-26T12:29:17.127Z,6860.00